createdAt,value
2022-12-23T00:02:08.083Z,3.03
2022-12-23T00:04:36.457Z,2.93
2022-12-23T00:07:06.110Z,3.57
2022-12-23T00:09:34.478Z,4.43
2022-12-23T00:12:20.301Z,3.60
2022-12-23T00:15:07.020Z,3.60
2022-12-23T00:17:36.037Z,2.97
2022-12-23T00:20:04.412Z,3.03
2022-12-23T00:22:51.687Z,3.93
2022-12-23T00:25:20.058Z,3.33
2022-12-23T00:28:01.433Z,3.00
2022-12-23T00:30:29.966Z,3.37
2022-12-23T00:32:58.256Z,3.67
2022-12-23T00:35:26.578Z,3.10
2022-12-23T00:37:56.250Z,3.70
2022-12-23T00:40:42.017Z,2.97
2022-12-23T00:43:10.368Z,3.20
2022-12-23T00:45:38.712Z,2.50
2022-12-23T00:48:24.924Z,2.60
2022-12-23T00:50:53.550Z,2.33
2022-12-23T00:53:23.205Z,2.33
2022-12-23T00:55:51.729Z,2.50
2022-12-23T00:58:20.682Z,2.40
2022-12-23T01:01:06.647Z,2.47
2022-12-23T01:03:52.475Z,2.60
2022-12-23T01:06:20.783Z,2.60
2022-12-23T01:08:50.442Z,2.60
2022-12-23T01:11:18.776Z,2.27
2022-12-23T01:13:47.087Z,2.30
2022-12-23T01:16:17.944Z,2.07
2022-12-23T01:18:46.371Z,2.93
2022-12-23T01:21:14.648Z,2.47
2022-12-23T01:23:42.946Z,2.00
2022-12-23T01:26:12.642Z,1.93
2022-12-23T01:28:40.954Z,2.00
2022-12-23T01:31:09.414Z,1.90
2022-12-23T01:33:37.758Z,1.50
2022-12-23T01:36:06.577Z,2.33
2022-12-23T01:38:34.885Z,2.33
2022-12-23T01:41:03.186Z,1.83
2022-12-23T01:43:45.401Z,1.90
2022-12-23T01:46:13.710Z,1.57
2022-12-23T01:48:42.090Z,1.93
2022-12-23T01:51:10.757Z,1.90
2022-12-23T01:53:39.286Z,1.97
2022-12-23T01:56:08.262Z,1.70
2022-12-23T01:58:37.307Z,1.90
2022-12-23T02:01:24.913Z,2.10
2022-12-23T02:03:53.777Z,2.30
2022-12-23T02:06:40.579Z,1.67
2022-12-23T02:09:20.575Z,2.00
2022-12-23T02:11:59.217Z,1.53
2022-12-23T02:14:48.264Z,1.77
2022-12-23T02:17:19.598Z,1.77
2022-12-23T02:20:04.250Z,1.53
2022-12-23T02:22:37.242Z,1.80
2022-12-23T02:25:19.317Z,1.50
2022-12-23T02:27:50.744Z,1.27
2022-12-23T02:30:33.966Z,1.90
2022-12-23T02:33:20.269Z,1.17
2022-12-23T02:35:51.912Z,1.30
2022-12-23T02:38:22.524Z,1.03
2022-12-23T02:40:53.357Z,1.00
2022-12-23T02:43:23.501Z,1.50
2022-12-23T02:45:54.005Z,1.60
2022-12-23T02:48:24.068Z,1.17
2022-12-23T02:50:53.759Z,1.20
2022-12-23T02:53:23.344Z,1.27
2022-12-23T02:55:51.668Z,1.10
2022-12-23T02:58:20.049Z,1.57
2022-12-23T03:00:48.381Z,1.23
2022-12-23T03:03:17.166Z,1.33
2022-12-23T03:05:46.051Z,1.13
2022-12-23T03:08:16.096Z,1.50
2022-12-23T03:10:48.008Z,1.00
2022-12-23T03:13:18.416Z,1.23
2022-12-23T03:15:48.134Z,0.90
2022-12-23T03:18:18.730Z,1.10
2022-12-23T03:20:49.504Z,1.20
2022-12-23T03:23:20.938Z,1.13
2022-12-23T03:25:51.348Z,1.10
2022-12-23T03:28:20.023Z,1.07
2022-12-23T03:30:49.975Z,1.33
2022-12-23T03:33:18.608Z,1.20
2022-12-23T03:35:47.397Z,0.90
2022-12-23T03:38:15.773Z,1.20
2022-12-23T03:40:46.880Z,1.30
2022-12-23T03:43:18.236Z,0.80
2022-12-23T03:45:47.127Z,0.93
2022-12-23T03:48:15.929Z,1.30
2022-12-23T03:50:44.254Z,0.83
2022-12-23T03:53:12.971Z,0.93
2022-12-23T03:55:42.504Z,0.87
2022-12-23T03:58:13.983Z,0.93
2022-12-23T04:00:43.379Z,0.87
2022-12-23T04:03:12.685Z,0.90
2022-12-23T04:05:41.160Z,0.70
2022-12-23T04:08:12.027Z,1.17
2022-12-23T04:10:40.302Z,0.83
2022-12-23T04:13:08.560Z,0.77
2022-12-23T04:15:40.278Z,1.53
2022-12-23T04:18:08.697Z,0.87
2022-12-23T04:20:37.408Z,0.60
2022-12-23T04:23:05.694Z,1.03
2022-12-23T04:25:33.971Z,0.90
2022-12-23T04:28:02.279Z,0.87
2022-12-23T04:30:34.344Z,0.90
2022-12-23T04:33:04.606Z,1.13
2022-12-23T04:35:32.927Z,0.70
2022-12-23T04:38:01.246Z,0.73
2022-12-23T04:40:29.565Z,0.80
2022-12-23T04:42:57.841Z,0.90
2022-12-23T04:45:26.170Z,0.90
2022-12-23T04:47:55.490Z,0.87
2022-12-23T04:50:25.172Z,1.00
2022-12-23T04:52:53.531Z,0.90
2022-12-23T04:55:21.856Z,0.90
2022-12-23T04:57:50.164Z,0.80
2022-12-23T05:00:18.879Z,1.00
2022-12-23T05:02:47.323Z,0.60
2022-12-23T05:05:15.755Z,0.60
2022-12-23T05:07:45.406Z,0.80
2022-12-23T05:10:13.684Z,0.87
2022-12-23T05:12:42.011Z,0.90
2022-12-23T05:15:10.609Z,0.70
2022-12-23T05:17:38.905Z,0.90
2022-12-23T05:20:07.618Z,0.97
2022-12-23T05:22:35.987Z,0.90
2022-12-23T05:25:05.903Z,0.60
2022-12-23T05:27:34.221Z,0.93
2022-12-23T05:30:02.537Z,0.73
2022-12-23T05:32:30.835Z,0.60
2022-12-23T05:34:59.110Z,0.47
2022-12-23T05:37:27.517Z,0.60
2022-12-23T05:39:55.781Z,0.40
2022-12-23T05:42:25.508Z,0.60
2022-12-23T05:44:53.794Z,0.77
2022-12-23T05:47:22.116Z,0.73
2022-12-23T05:49:50.684Z,0.77
2022-12-23T05:52:18.973Z,0.60
2022-12-23T05:54:47.374Z,0.50
2022-12-23T05:57:15.683Z,0.70
2022-12-23T05:59:45.330Z,0.47
2022-12-23T06:02:13.782Z,0.40
2022-12-23T06:04:42.211Z,0.60
2022-12-23T06:07:10.789Z,0.70
2022-12-23T06:09:39.100Z,0.60
2022-12-23T06:12:07.665Z,0.70
2022-12-23T06:14:35.946Z,0.70
2022-12-23T06:17:05.662Z,0.50
2022-12-23T06:19:33.955Z,0.70
2022-12-23T06:22:02.220Z,0.47
2022-12-23T06:24:30.554Z,0.50
2022-12-23T06:26:58.877Z,0.67
2022-12-23T06:29:27.168Z,0.73
2022-12-23T06:31:55.785Z,0.77
2022-12-23T06:34:25.514Z,0.50
2022-12-23T06:36:53.797Z,0.60
2022-12-23T06:39:22.211Z,0.60
2022-12-23T06:41:50.521Z,0.40
2022-12-23T06:44:18.806Z,0.40
2022-12-23T06:46:47.379Z,0.60
2022-12-23T06:49:15.685Z,0.53
2022-12-23T06:51:45.343Z,0.70
2022-12-23T06:54:13.821Z,0.57
2022-12-23T06:56:42.098Z,0.53
2022-12-23T06:59:10.443Z,0.53
2022-12-23T07:01:38.918Z,0.50
2022-12-23T07:04:07.511Z,0.50
2022-12-23T07:06:35.994Z,0.40
2022-12-23T07:09:06.267Z,0.60
2022-12-23T07:11:34.605Z,0.73
2022-12-23T07:14:03.051Z,0.60
2022-12-23T07:16:31.463Z,0.57
2022-12-23T07:18:59.789Z,0.70
2022-12-23T07:21:29.811Z,0.70
2022-12-23T07:23:58.469Z,0.60
2022-12-23T07:26:28.129Z,0.40
2022-12-23T07:28:56.446Z,0.60
2022-12-23T07:31:24.825Z,0.80
2022-12-23T07:33:53.206Z,0.90
2022-12-23T07:36:21.543Z,0.50
2022-12-23T07:38:51.529Z,0.37
2022-12-23T07:41:20.137Z,0.60
2022-12-23T07:43:50.027Z,0.57
2022-12-23T07:46:18.365Z,0.77
2022-12-23T07:48:47.074Z,0.80
2022-12-23T07:51:15.381Z,0.50
2022-12-23T07:53:43.659Z,0.50
2022-12-23T07:56:12.051Z,0.53
2022-12-23T07:58:40.363Z,0.67
2022-12-23T08:01:10.144Z,0.70
2022-12-23T08:03:38.827Z,0.80
2022-12-23T08:06:07.636Z,0.53
2022-12-23T08:08:35.907Z,0.83
2022-12-23T08:11:04.727Z,0.77
2022-12-23T08:13:33.454Z,0.60
2022-12-23T08:16:02.092Z,0.50
2022-12-23T08:18:32.667Z,0.60
2022-12-23T08:21:01.586Z,0.47
2022-12-23T08:23:30.346Z,0.40
2022-12-23T08:26:02.334Z,0.70
2022-12-23T08:28:30.794Z,0.70
2022-12-23T08:31:04.742Z,0.70
2022-12-23T08:33:34.946Z,0.40
2022-12-23T08:36:03.292Z,0.57
2022-12-23T08:38:31.629Z,0.50
2022-12-23T08:40:59.905Z,0.50
2022-12-23T08:43:35.227Z,0.60
2022-12-23T08:46:04.321Z,0.57
2022-12-23T08:48:34.166Z,0.50
2022-12-23T08:51:04.169Z,0.50
2022-12-23T08:53:32.435Z,0.70
2022-12-23T08:56:02.938Z,0.33
2022-12-23T08:58:31.367Z,0.60
2022-12-23T09:00:59.734Z,0.30
2022-12-23T09:03:28.162Z,0.40
2022-12-23T09:05:58.171Z,0.30
2022-12-23T09:08:26.546Z,0.50
2022-12-23T09:10:54.819Z,0.63
2022-12-23T09:13:32.836Z,0.30
2022-12-23T09:16:03.104Z,0.90
2022-12-23T09:18:31.783Z,0.40
2022-12-23T09:21:01.522Z,0.23
2022-12-23T09:23:29.856Z,0.60
2022-12-23T09:25:58.169Z,0.50
2022-12-23T09:28:26.515Z,0.53
2022-12-23T09:30:54.848Z,0.50
2022-12-23T09:33:23.465Z,0.50
2022-12-23T09:35:51.791Z,0.50
2022-12-23T09:38:21.465Z,0.30
2022-12-23T09:40:49.781Z,0.63
2022-12-23T09:43:20.024Z,0.53
2022-12-23T09:45:52.415Z,0.70
2022-12-23T09:48:21.473Z,0.50
2022-12-23T09:50:49.794Z,0.50
2022-12-23T09:53:19.192Z,0.50
2022-12-23T09:55:50.861Z,0.60
2022-12-23T09:58:23.084Z,0.20
2022-12-23T10:00:56.172Z,0.30
2022-12-23T10:03:26.557Z,0.60
2022-12-23T10:05:58.099Z,0.40
2022-12-23T10:08:28.745Z,0.50
2022-12-23T10:10:58.749Z,0.40
2022-12-23T10:13:27.604Z,0.70
2022-12-23T10:15:56.420Z,0.47
2022-12-23T10:18:25.214Z,0.60
2022-12-23T10:20:54.753Z,0.50
2022-12-23T10:23:26.176Z,0.73
2022-12-23T10:25:54.776Z,0.40
2022-12-23T10:28:24.545Z,0.50
2022-12-23T10:31:39.276Z,0.50
2022-12-23T10:33:56.068Z,0.40
2022-12-23T10:36:25.882Z,0.60
2022-12-23T10:38:55.806Z,0.60
2022-12-23T10:41:27.562Z,0.60
2022-12-23T10:44:01.899Z,0.60
2022-12-23T10:46:31.706Z,0.47
2022-12-23T10:49:02.014Z,0.70
2022-12-23T10:51:30.616Z,0.53
2022-12-23T10:54:01.219Z,0.60
2022-12-23T10:56:30.381Z,0.30
2022-12-23T10:59:00.492Z,0.80
2022-12-23T11:01:29.160Z,0.40
2022-12-23T11:03:59.461Z,0.30
2022-12-23T11:06:31.611Z,0.40
2022-12-23T11:09:05.215Z,0.50
2022-12-23T11:11:52.296Z,0.70
2022-12-23T11:14:32.337Z,0.50
2022-12-23T11:17:00.652Z,0.60
2022-12-23T11:19:29.046Z,0.63
2022-12-23T11:21:57.961Z,0.80
2022-12-23T11:24:26.522Z,0.53
2022-12-23T11:27:01.054Z,0.60
2022-12-23T11:29:30.162Z,0.50
2022-12-23T11:31:59.854Z,0.67
2022-12-23T11:34:28.382Z,0.57
2022-12-23T11:37:01.765Z,0.40
2022-12-23T11:39:34.137Z,0.50
2022-12-23T11:42:07.134Z,0.50
2022-12-23T11:44:37.276Z,0.67
2022-12-23T11:47:20.798Z,0.47
2022-12-23T11:49:49.507Z,0.40
2022-12-23T11:52:19.020Z,0.40
2022-12-23T11:54:54.386Z,0.40
2022-12-23T11:57:23.796Z,0.63
2022-12-23T11:59:52.949Z,0.40
2022-12-23T12:02:23.541Z,0.47
2022-12-23T12:04:54.342Z,0.67
2022-12-23T12:07:22.663Z,0.50
2022-12-23T12:09:51.345Z,0.70
2022-12-23T12:12:21.332Z,0.43
2022-12-23T12:14:50.224Z,0.80
2022-12-23T12:17:20.039Z,0.67
2022-12-23T12:19:53.637Z,0.60
2022-12-23T12:22:24.774Z,0.80
2022-12-23T12:24:54.539Z,0.70
2022-12-23T12:27:22.910Z,1.00
2022-12-23T12:29:52.724Z,0.80
2022-12-23T12:32:21.622Z,0.73
2022-12-23T12:34:53.545Z,1.17
2022-12-23T12:37:24.430Z,1.10
2022-12-23T12:39:53.871Z,1.10
2022-12-23T12:42:23.130Z,0.63
2022-12-23T12:44:54.437Z,1.10
2022-12-23T12:47:52.187Z,0.63
2022-12-23T12:50:15.920Z,0.80
2022-12-23T12:52:44.255Z,1.33
2022-12-23T12:55:16.277Z,0.67
2022-12-23T12:57:44.562Z,0.90
2022-12-23T13:00:15.978Z,0.80
2022-12-23T13:02:48.927Z,1.00
2022-12-23T13:05:30.747Z,0.77
2022-12-23T13:08:03.509Z,0.70
2022-12-23T13:10:35.578Z,1.00
2022-12-23T13:13:05.625Z,0.90
2022-12-23T13:15:34.664Z,0.90
2022-12-23T13:18:08.113Z,0.73
2022-12-23T13:20:38.291Z,0.60
2022-12-23T13:23:41.238Z,0.83
2022-12-23T13:25:57.531Z,0.67
2022-12-23T13:28:31.221Z,0.73
2022-12-23T13:31:00.497Z,0.83
2022-12-23T13:33:30.054Z,0.80
2022-12-23T13:36:06.075Z,1.00
2022-12-23T13:38:45.379Z,1.07
2022-12-23T13:41:16.803Z,0.80
2022-12-23T13:43:45.746Z,0.80
2022-12-23T13:46:16.274Z,0.93
2022-12-23T13:48:45.808Z,1.00
2022-12-23T13:51:16.282Z,0.87
2022-12-23T13:53:49.924Z,1.03
2022-12-23T13:56:20.427Z,1.00
2022-12-23T13:58:49.189Z,1.13
2022-12-23T14:01:22.314Z,0.80
2022-12-23T14:03:50.944Z,1.20
2022-12-23T14:06:43.484Z,0.93
2022-12-23T14:09:14.543Z,0.60
2022-12-23T14:11:42.831Z,1.53
2022-12-23T14:14:17.037Z,0.67
2022-12-23T14:16:48.322Z,0.77
2022-12-23T14:19:26.689Z,0.80
2022-12-23T14:22:00.234Z,0.70
2022-12-23T14:24:33.054Z,0.50
2022-12-23T14:27:14.757Z,1.17
2022-12-23T14:29:46.785Z,0.90
2022-12-23T14:32:20.519Z,0.87
2022-12-23T14:35:03.694Z,0.73
2022-12-23T14:37:37.087Z,0.67
2022-12-23T14:40:24.433Z,1.10
2022-12-23T14:42:58.184Z,0.60
2022-12-23T14:45:30.101Z,0.67
2022-12-23T14:47:58.369Z,0.63
2022-12-23T14:50:35.636Z,1.20
2022-12-23T14:53:05.294Z,1.03
2022-12-23T14:55:46.522Z,0.73
2022-12-23T14:58:33.585Z,0.47
2022-12-23T15:01:03.385Z,0.70
2022-12-23T15:03:32.550Z,1.20
2022-12-23T15:06:00.916Z,0.67
2022-12-23T15:08:31.910Z,0.70
2022-12-23T15:11:00.370Z,1.17
2022-12-23T15:13:29.044Z,0.90
2022-12-23T15:16:01.774Z,0.87
2022-12-23T15:18:30.431Z,1.20
2022-12-23T15:21:02.216Z,0.70
2022-12-23T15:23:33.311Z,1.37
2022-12-23T15:26:01.789Z,0.77
2022-12-23T15:28:34.306Z,0.80
2022-12-23T15:31:02.712Z,0.60
2022-12-23T15:36:21.828Z,1.10
2022-12-23T15:38:51.565Z,0.60
2022-12-23T15:41:22.368Z,0.70
2022-12-23T15:43:50.730Z,1.00
2022-12-23T15:46:25.022Z,0.60
2022-12-23T15:48:56.544Z,0.90
2022-12-23T15:51:57.895Z,0.60
2022-12-23T15:54:20.498Z,0.60
2022-12-23T15:56:49.909Z,1.20
2022-12-23T15:59:19.341Z,1.23
2022-12-23T16:01:48.038Z,0.50
2022-12-23T16:04:18.808Z,1.00
2022-12-23T16:06:49.872Z,0.80
2022-12-23T16:09:35.676Z,0.90
2022-12-23T16:12:05.562Z,0.93
2022-12-23T16:14:35.321Z,0.57
2022-12-23T16:17:03.920Z,0.60
2022-12-23T16:19:39.200Z,0.90
2022-12-23T16:22:08.760Z,0.70
2022-12-23T16:24:38.417Z,0.50
2022-12-23T16:27:07.003Z,0.50
2022-12-23T16:29:35.301Z,0.70
2022-12-23T16:32:03.610Z,0.67
2022-12-23T16:34:32.976Z,0.60
2022-12-23T16:37:01.346Z,0.90
2022-12-23T16:39:29.632Z,0.50
2022-12-23T16:41:59.290Z,0.93
2022-12-23T16:44:27.652Z,0.77
2022-12-23T16:46:55.939Z,0.60
2022-12-23T16:49:31.252Z,0.90
2022-12-23T16:52:01.647Z,0.57
2022-12-23T16:54:30.165Z,0.80
2022-12-23T16:56:59.857Z,0.90
2022-12-23T16:59:28.125Z,1.07
2022-12-23T17:02:02.957Z,0.97
2022-12-23T17:04:31.870Z,0.57
2022-12-23T17:07:00.297Z,0.70
2022-12-23T17:09:28.683Z,0.93
2022-12-23T17:11:57.445Z,0.60
2022-12-23T17:14:27.303Z,0.60
2022-12-23T17:16:55.627Z,0.90
2022-12-23T17:19:28.655Z,0.80
2022-12-23T17:21:59.169Z,0.90
2022-12-23T17:24:27.994Z,0.80
2022-12-23T17:26:56.777Z,0.50
2022-12-23T17:29:25.307Z,0.90
2022-12-23T17:31:55.065Z,1.13
2022-12-23T17:34:23.807Z,0.80
2022-12-23T17:36:52.924Z,1.00
2022-12-23T17:39:21.498Z,1.10
2022-12-23T17:41:50.028Z,0.50
2022-12-23T17:44:18.767Z,0.53
2022-12-23T17:46:47.422Z,0.93
2022-12-23T17:49:17.120Z,0.70
2022-12-23T17:51:45.726Z,0.50
2022-12-23T17:54:18.768Z,0.70
2022-12-23T17:56:47.072Z,0.63
2022-12-23T17:59:15.381Z,1.00
2022-12-23T18:01:43.789Z,0.50
2022-12-23T18:04:12.388Z,0.70
2022-12-23T18:06:42.045Z,0.47
2022-12-23T18:09:10.399Z,1.20
2022-12-23T18:11:41.262Z,0.73
2022-12-23T18:14:10.881Z,0.97
2022-12-23T18:16:39.224Z,1.00
2022-12-23T18:19:08.287Z,0.83
2022-12-23T18:21:36.577Z,1.17
2022-12-23T18:24:06.642Z,0.80
2022-12-23T18:26:34.950Z,0.70
2022-12-23T18:29:03.241Z,0.57
2022-12-23T18:31:31.828Z,1.00
2022-12-23T18:34:00.682Z,0.83
2022-12-23T18:36:30.398Z,0.70
2022-12-23T18:38:59.180Z,0.93
2022-12-23T18:41:29.012Z,0.97
2022-12-23T18:43:57.393Z,0.90
2022-12-23T18:46:25.883Z,0.90
2022-12-23T18:48:54.859Z,0.87
2022-12-23T18:51:23.232Z,1.07
2022-12-23T18:53:51.788Z,0.90
2022-12-23T18:56:21.022Z,0.80
2022-12-23T18:58:50.829Z,1.13
2022-12-23T19:01:19.600Z,0.87
2022-12-23T19:03:47.945Z,0.87
2022-12-23T19:06:16.458Z,0.93
2022-12-23T19:08:45.112Z,0.63
2022-12-23T19:11:13.900Z,0.70
2022-12-23T19:13:42.248Z,0.73
2022-12-23T19:16:14.542Z,0.67
2022-12-23T19:18:42.921Z,0.90
2022-12-23T19:21:11.297Z,1.03
2022-12-23T19:23:40.678Z,0.93
2022-12-23T19:26:08.995Z,1.00
2022-12-23T19:28:38.053Z,1.10
2022-12-23T19:31:08.625Z,1.40
2022-12-23T19:33:39.189Z,0.80
2022-12-23T19:36:11.560Z,0.73
2022-12-23T19:38:39.925Z,0.97
2022-12-23T19:41:08.252Z,1.00
2022-12-23T19:43:36.844Z,0.90
2022-12-23T19:46:05.546Z,0.93
2022-12-23T19:48:33.887Z,0.57
2022-12-23T19:51:04.255Z,0.70
2022-12-23T19:53:32.544Z,1.00
2022-12-23T19:56:00.907Z,1.00
2022-12-23T19:58:29.370Z,0.83
2022-12-23T20:01:06.181Z,1.10
2022-12-23T20:03:34.633Z,1.27
2022-12-23T20:06:05.359Z,1.23
2022-12-23T20:08:33.873Z,1.10
2022-12-23T20:11:06.037Z,0.83
2022-12-23T20:13:34.626Z,0.90
2022-12-23T20:16:03.072Z,0.83
2022-12-23T20:18:31.439Z,1.03
2022-12-23T20:21:01.013Z,1.10
2022-12-23T20:23:30.702Z,0.90
2022-12-23T20:25:58.939Z,1.03
2022-12-23T20:28:27.369Z,0.90
2022-12-23T20:31:02.221Z,0.87
2022-12-23T20:33:30.614Z,0.90
2022-12-23T20:35:58.911Z,0.90
2022-12-23T20:38:27.202Z,0.97
2022-12-23T20:40:57.036Z,0.73
2022-12-23T20:43:25.416Z,1.40
2022-12-23T20:45:53.707Z,1.00
2022-12-23T20:48:23.396Z,0.87
2022-12-23T20:50:53.173Z,0.50
2022-12-23T20:53:21.456Z,1.00
2022-12-23T20:55:50.050Z,0.40
2022-12-23T20:58:37.264Z,1.27
2022-12-23T21:01:14.593Z,0.90
2022-12-23T21:03:42.906Z,1.10
2022-12-23T21:06:11.234Z,0.97
2022-12-23T21:08:40.186Z,0.80
2022-12-23T21:11:08.532Z,0.90
2022-12-23T21:13:40.624Z,1.10
2022-12-23T21:16:09.667Z,1.23
2022-12-23T21:18:38.044Z,0.90
2022-12-23T21:21:06.953Z,0.50
2022-12-23T21:23:37.527Z,0.80
2022-12-23T21:26:13.199Z,0.90
2022-12-23T21:28:43.113Z,0.80
2022-12-23T21:31:11.606Z,0.60
2022-12-23T21:33:40.494Z,0.80
2022-12-23T21:36:09.141Z,0.80
2022-12-23T21:38:37.984Z,0.50
2022-12-23T21:41:06.995Z,0.63
2022-12-23T21:43:35.341Z,0.40
2022-12-23T21:46:05.899Z,0.70
2022-12-23T21:48:34.858Z,0.80
2022-12-23T21:51:06.610Z,0.70
2022-12-23T21:53:35.082Z,0.73
2022-12-23T21:56:03.925Z,0.97
2022-12-23T21:58:32.236Z,1.10
2022-12-23T22:01:00.769Z,1.00
2022-12-23T22:03:30.497Z,0.43
2022-12-23T22:06:09.917Z,0.53
2022-12-23T22:08:38.932Z,0.80
2022-12-23T22:11:08.631Z,0.50
2022-12-23T22:13:36.969Z,1.00
2022-12-23T22:16:05.506Z,0.50
2022-12-23T22:18:35.155Z,0.50
2022-12-23T22:21:05.585Z,0.80
2022-12-23T22:23:33.898Z,1.33
2022-12-23T22:26:02.460Z,0.70
2022-12-23T22:28:31.992Z,0.70
2022-12-23T22:31:02.996Z,1.10
2022-12-23T22:33:31.456Z,0.73
2022-12-23T22:36:01.218Z,0.80
2022-12-23T22:38:29.809Z,0.83
2022-12-23T22:40:58.069Z,0.67
2022-12-23T22:43:26.639Z,0.77
2022-12-23T22:45:58.186Z,0.40
2022-12-23T22:48:26.901Z,0.63
2022-12-23T22:51:02.537Z,0.60
2022-12-23T22:53:32.195Z,1.03
2022-12-23T22:56:00.535Z,0.80
2022-12-23T22:58:29.420Z,0.30
2022-12-23T23:00:57.808Z,0.77
2022-12-23T23:03:26.584Z,0.80
2022-12-23T23:06:01.923Z,0.47
2022-12-23T23:08:31.743Z,0.47
2022-12-23T23:11:00.583Z,0.50
2022-12-23T23:13:30.101Z,0.90
2022-12-23T23:15:58.613Z,0.77
2022-12-23T23:18:27.070Z,0.70
2022-12-23T23:20:55.699Z,0.73
2022-12-23T23:23:24.305Z,0.67
2022-12-23T23:25:54.038Z,1.10
2022-12-23T23:28:22.485Z,0.93
2022-12-23T23:31:03.830Z,1.30
2022-12-23T23:33:39.176Z,0.90
2022-12-23T23:36:07.987Z,1.50
2022-12-23T23:38:36.379Z,1.40
2022-12-23T23:41:06.576Z,1.60
2022-12-23T23:43:35.028Z,1.70
2022-12-23T23:46:03.732Z,1.80
2022-12-23T23:48:32.243Z,1.37
2022-12-23T23:51:07.127Z,2.23
2022-12-23T23:53:35.584Z,2.17
2022-12-23T23:56:06.317Z,1.97
2022-12-23T23:58:34.729Z,2.00
